Kemp, Oklahoma
Current Conditions -  °F | °C
As of 11:35 AM on Sunday 23 Nov 2014 (Local Time) from KDUA Reporting Station
Clear Clear  
Wind Chill: 66°   Ceiling: Unl
Heat Index: 66°   Visibility: 10mi
Dew Point: 59°   Wind: 15mph
Humidity: 78%   Direction: 200°SSW
Pressure: 29.4"   Gusts: 21mph
Location:  33.77°N, 96.35°W
Report Text: KDUA 231735Z AUTO 20013G18KT 10SM CLR 19/15 A2940 RMK AO2
Loading
Personal Weather Stations






























Interactive Weather Map New forecast layout! Learn more

10-Day Weather Forecast

Advertisements
Track Severe Weather on mobile